createdAt,value
2023-03-12T00:02:11.732Z,2.45
2023-03-12T00:04:38.649Z,3.70
2023-03-12T00:07:05.859Z,3.70
2023-03-12T00:09:35.695Z,3.05
2023-03-12T00:12:05.276Z,4.53
2023-03-12T00:14:34.807Z,2.83
2023-03-12T00:17:11.853Z,4.65
2023-03-12T00:19:52.135Z,1.80
2023-03-12T00:22:29.193Z,4.72
2023-03-12T00:25:11.850Z,5.63
2023-03-12T00:30:17.798Z,2.25
2023-03-12T00:32:44.955Z,4.15
2023-03-12T00:35:12.024Z,6.53
2023-03-12T00:37:39.519Z,3.55
2023-03-12T00:40:17.026Z,2.22
2023-03-12T00:42:55.363Z,3.50
2023-03-12T00:45:22.459Z,3.70
2023-03-12T00:47:49.204Z,3.47
2023-03-12T00:50:16.615Z,3.42
2023-03-12T00:52:44.007Z,1.58
2023-03-12T00:55:11.238Z,2.60
2023-03-12T00:57:38.389Z,2.67
2023-03-12T01:00:11.585Z,4.00
2023-03-12T01:02:39.859Z,4.82
2023-03-12T01:05:12.054Z,1.38
2023-03-12T01:07:38.983Z,1.80
2023-03-12T01:10:07.755Z,2.03
2023-03-12T01:12:35.143Z,1.90
2023-03-12T01:15:02.843Z,6.50
2023-03-12T01:17:31.109Z,1.60
2023-03-12T01:19:58.907Z,1.88
2023-03-12T01:22:26.450Z,3.45
2023-03-12T01:24:53.348Z,3.35
2023-03-12T01:27:20.354Z,3.47
2023-03-12T01:29:47.406Z,4.43
2023-03-12T01:32:14.491Z,2.95
2023-03-12T01:34:45.050Z,4.82
2023-03-12T01:37:13.374Z,3.78
2023-03-12T01:39:43.505Z,3.30
2023-03-12T01:46:16.429Z,4.35
2023-03-12T01:48:48.558Z,3.63
2023-03-12T01:53:51.538Z,6.78
2023-03-12T01:56:21.710Z,3.53
2023-03-12T01:58:55.992Z,5.77
2023-03-12T02:01:25.534Z,3.78
2023-03-12T02:03:55.968Z,3.93
2023-03-12T02:06:34.551Z,6.13
2023-03-12T02:09:04.676Z,4.07
2023-03-12T02:11:32.940Z,5.22
2023-03-12T02:14:00.266Z,3.53
2023-03-12T02:16:27.734Z,7.22
2023-03-12T02:18:59.747Z,3.67
2023-03-12T02:21:31.626Z,3.78
2023-03-12T02:26:37.245Z,4.45
2023-03-12T02:29:05.367Z,6.25
2023-03-12T02:31:43.007Z,4.15
2023-03-12T02:34:11.028Z,4.70
2023-03-12T02:36:38.384Z,5.43
2023-03-12T02:39:06.094Z,5.38
2023-03-12T02:41:39.280Z,6.60
2023-03-12T02:44:12.009Z,4.15
2023-03-12T02:46:42.221Z,4.95
2023-03-12T02:49:11.424Z,5.90
2023-03-12T02:51:43.538Z,5.38
2023-03-12T02:54:16.013Z,5.65
2023-03-12T02:56:49.147Z,6.70
2023-03-12T02:59:18.019Z,5.50
2023-03-12T03:01:52.612Z,5.53
2023-03-12T03:04:19.992Z,4.88
2023-03-12T03:06:49.910Z,6.80
2023-03-12T03:09:30.605Z,7.20
2023-03-12T03:12:04.344Z,5.57
2023-03-12T03:14:34.020Z,9.07
2023-03-12T03:17:01.716Z,8.43
2023-03-12T03:19:33.728Z,9.63
2023-03-12T03:22:00.907Z,5.93
2023-03-12T03:24:33.281Z,9.07
2023-03-12T03:27:00.315Z,6.97
2023-03-12T03:29:28.683Z,6.85
2023-03-12T03:31:55.564Z,6.68
2023-03-12T03:34:22.578Z,8.93
2023-03-12T03:36:49.602Z,6.50
2023-03-12T03:39:17.731Z,5.53
2023-03-12T03:41:48.026Z,5.95
2023-03-12T03:44:20.639Z,8.30
2023-03-12T03:46:49.560Z,8.07
2023-03-12T03:49:16.418Z,9.82
2023-03-12T03:51:44.020Z,9.85
2023-03-12T03:54:14.701Z,7.63
2023-03-12T03:56:43.057Z,8.45
2023-03-12T03:59:11.042Z,7.10
2023-03-12T04:01:40.034Z,5.53
2023-03-12T04:04:10.108Z,6.10
2023-03-12T04:09:07.912Z,6.13
2023-03-12T04:11:37.309Z,6.07
2023-03-12T04:14:09.380Z,4.78
2023-03-12T04:16:38.894Z,7.27
2023-03-12T04:19:09.935Z,4.90
2023-03-12T04:21:37.108Z,7.03
2023-03-12T04:24:06.737Z,6.27
2023-03-12T04:26:35.072Z,5.03
2023-03-12T04:29:03.448Z,6.87
2023-03-12T04:31:31.076Z,5.70
2023-03-12T04:33:58.214Z,6.73
2023-03-12T04:36:32.343Z,4.73
2023-03-12T04:39:01.586Z,4.78
2023-03-12T04:41:34.751Z,6.60
2023-03-12T04:44:06.746Z,5.83
2023-03-12T04:46:35.425Z,6.83
2023-03-12T04:49:03.089Z,6.23
2023-03-12T04:51:34.788Z,6.75
2023-03-12T04:56:33.809Z,4.87
2023-03-12T04:59:01.589Z,4.45
2023-03-12T05:01:33.293Z,5.43
2023-03-12T05:04:04.238Z,5.83
2023-03-12T05:06:32.198Z,5.77
2023-03-12T05:09:00.698Z,8.93
2023-03-12T05:11:27.932Z,6.27
2023-03-12T05:13:54.793Z,5.20
2023-03-12T05:16:23.643Z,4.50
2023-03-12T05:18:50.682Z,5.97
2023-03-12T05:21:21.148Z,5.47
2023-03-12T05:23:51.542Z,6.90
2023-03-12T05:26:24.304Z,7.50
2023-03-12T05:28:58.239Z,6.20
2023-03-12T05:31:26.696Z,4.80
2023-03-12T05:33:53.896Z,8.27
2023-03-12T05:36:22.286Z,5.97
2023-03-12T05:38:50.468Z,6.87
2023-03-12T05:41:24.129Z,7.77
2023-03-12T05:43:54.725Z,7.17
2023-03-12T05:46:23.223Z,6.33
2023-03-12T05:48:50.914Z,7.97
2023-03-12T05:51:18.560Z,8.30
2023-03-12T05:53:45.937Z,6.20
2023-03-12T05:56:15.752Z,8.50
2023-03-12T05:58:45.043Z,9.43
2023-03-12T06:01:13.664Z,11.13
2023-03-12T06:03:40.859Z,13.23
2023-03-12T06:06:07.965Z,8.60
2023-03-12T06:08:34.928Z,8.77
2023-03-12T06:11:01.926Z,8.93
2023-03-12T06:13:30.834Z,5.77
2023-03-12T06:16:03.995Z,12.00
2023-03-12T06:18:32.902Z,12.20
2023-03-12T06:21:11.046Z,11.70
2023-03-12T06:23:39.249Z,9.80
2023-03-12T06:26:10.651Z,13.93
2023-03-12T06:28:38.605Z,15.37
2023-03-12T06:31:08.284Z,5.70
2023-03-12T06:33:35.794Z,18.80
2023-03-12T06:36:06.387Z,20.27
2023-03-12T06:38:34.123Z,11.57
2023-03-12T06:41:04.079Z,18.43
2023-03-12T06:43:33.921Z,17.20
2023-03-12T06:46:02.279Z,17.80
2023-03-12T06:48:33.198Z,18.47
2023-03-12T06:51:00.269Z,16.33
2023-03-12T06:53:28.021Z,18.03
2023-03-12T06:55:54.952Z,19.43
2023-03-12T06:58:21.914Z,17.17
2023-03-12T07:00:48.936Z,12.60
2023-03-12T07:03:16.513Z,19.02
2023-03-12T07:05:46.391Z,18.25
2023-03-12T07:08:14.514Z,17.35
2023-03-12T07:10:42.121Z,16.45
2023-03-12T07:13:10.007Z,15.60
2023-03-12T07:15:37.163Z,14.98
2023-03-12T07:18:05.804Z,17.13
2023-03-12T07:20:36.300Z,15.40
2023-03-12T07:23:04.887Z,14.55
2023-03-12T07:25:31.984Z,11.68
2023-03-12T07:27:58.910Z,15.73
2023-03-12T07:30:25.784Z,16.13
2023-03-12T07:32:52.730Z,13.80
2023-03-12T07:35:19.799Z,11.32
2023-03-12T07:37:46.849Z,12.65
2023-03-12T07:40:15.780Z,10.75
2023-03-12T07:42:42.772Z,11.90
2023-03-12T07:45:15.116Z,10.05
2023-03-12T07:47:42.257Z,12.32
2023-03-12T07:50:11.486Z,16.13
2023-03-12T07:52:38.682Z,11.30
2023-03-12T07:55:07.740Z,11.95
2023-03-12T07:57:36.793Z,9.43
2023-03-12T08:00:05.471Z,11.68
2023-03-12T08:02:39.165Z,10.38
2023-03-12T08:05:07.799Z,12.52
2023-03-12T08:07:35.762Z,12.10
2023-03-12T08:10:08.050Z,12.80
2023-03-12T08:12:37.003Z,11.18
2023-03-12T08:15:04.460Z,14.23
2023-03-12T08:17:31.632Z,11.18
2023-03-12T08:19:58.522Z,11.27
2023-03-12T08:22:27.065Z,12.45
2023-03-12T08:24:53.959Z,9.20
2023-03-12T08:27:21.271Z,9.25
2023-03-12T08:29:49.932Z,12.18
2023-03-12T08:32:17.382Z,10.65
2023-03-12T08:34:44.624Z,10.75
2023-03-12T08:37:11.791Z,9.75
2023-03-12T08:39:38.867Z,8.73
2023-03-12T08:42:10.773Z,7.93
2023-03-12T08:44:39.174Z,8.15
2023-03-12T08:47:07.406Z,7.70
2023-03-12T08:49:34.809Z,7.95
2023-03-12T08:52:02.177Z,6.88
2023-03-12T08:54:29.102Z,6.30
2023-03-12T08:56:56.089Z,8.20
2023-03-12T08:59:23.988Z,8.48
2023-03-12T09:01:50.960Z,5.88
2023-03-12T09:04:19.269Z,9.05
2023-03-12T09:06:46.672Z,11.07
2023-03-12T09:09:13.817Z,9.35
2023-03-12T09:11:40.742Z,7.10
2023-03-12T09:14:49.831Z,7.35
2023-03-12T09:16:54.952Z,6.93
2023-03-12T09:19:23.306Z,6.20
2023-03-12T09:21:50.171Z,6.88
2023-03-12T09:24:17.036Z,8.07
2023-03-12T09:26:44.071Z,7.15
2023-03-12T09:29:11.587Z,8.07
2023-03-12T09:31:38.681Z,7.65
2023-03-12T09:34:05.991Z,5.95
2023-03-12T09:36:34.210Z,8.95
2023-03-12T09:39:01.315Z,6.30
2023-03-12T09:41:34.444Z,4.05
2023-03-12T09:44:11.539Z,6.68
2023-03-12T09:46:46.638Z,6.72
2023-03-12T09:49:21.364Z,7.53
2023-03-12T09:51:55.323Z,9.02
2023-03-12T09:54:30.269Z,9.10
2023-03-12T09:57:04.047Z,12.18
2023-03-12T10:02:53.146Z,8.57
2023-03-12T10:08:54.108Z,7.47
2023-03-12T10:11:38.656Z,6.95
2023-03-12T10:14:23.749Z,6.70
2023-03-12T10:17:09.859Z,5.97
2023-03-12T10:20:12.988Z,6.82
2023-03-12T10:22:55.315Z,7.25
2023-03-12T10:25:30.716Z,8.30
2023-03-12T10:28:07.056Z,7.85
2023-03-12T10:30:34.379Z,4.40
2023-03-12T10:33:06.608Z,4.13
2023-03-12T10:35:33.483Z,3.20
2023-03-12T10:38:02.422Z,3.83
2023-03-12T10:40:34.392Z,5.53
2023-03-12T10:45:39.649Z,3.15
2023-03-12T10:48:09.233Z,4.15
2023-03-12T10:50:39.489Z,3.65
2023-03-12T10:53:20.570Z,4.03
2023-03-12T10:56:02.577Z,4.78
2023-03-12T10:58:36.002Z,5.57
2023-03-12T11:01:06.262Z,6.68
2023-03-12T11:03:33.530Z,7.10
2023-03-12T11:06:02.826Z,2.78
2023-03-12T11:08:32.734Z,3.80
2023-03-12T11:11:04.026Z,6.07
2023-03-12T11:13:34.379Z,6.40
2023-03-12T11:16:21.336Z,6.90
2023-03-12T11:18:56.427Z,3.97
2023-03-12T11:21:24.157Z,8.18
2023-03-12T11:24:08.040Z,6.35
2023-03-12T11:26:47.013Z,4.32
2023-03-12T11:29:25.565Z,5.45
2023-03-12T11:32:03.533Z,4.07
2023-03-12T11:34:37.619Z,4.18
2023-03-12T11:37:14.272Z,7.35
2023-03-12T11:40:21.269Z,5.72
2023-03-12T11:43:43.130Z,7.40
2023-03-12T11:46:30.977Z,5.57
2023-03-12T11:49:14.469Z,8.18
2023-03-12T11:51:55.313Z,7.10
2023-03-12T11:54:43.190Z,5.22
2023-03-12T11:57:28.355Z,7.18
2023-03-12T12:00:12.076Z,6.32
2023-03-12T12:03:02.200Z,7.88
2023-03-12T12:05:44.921Z,5.68
2023-03-12T12:11:18.600Z,9.65
2023-03-12T12:14:06.626Z,6.68
2023-03-12T12:17:03.715Z,6.35
2023-03-12T12:20:01.017Z,6.68
2023-03-12T12:22:42.769Z,7.72
2023-03-12T12:25:40.565Z,8.70
2023-03-12T12:28:28.838Z,4.70
2023-03-12T12:31:21.159Z,5.93
2023-03-12T12:34:23.376Z,6.78
2023-03-12T12:36:59.235Z,9.48
2023-03-12T12:39:35.360Z,4.05
2023-03-12T12:42:11.481Z,5.22
2023-03-12T12:44:47.208Z,5.88
2023-03-12T12:47:27.831Z,5.05
2023-03-12T12:49:59.958Z,5.85
2023-03-12T12:52:28.564Z,5.38
2023-03-12T12:55:08.439Z,3.40
2023-03-12T12:57:44.786Z,4.78
2023-03-12T13:00:37.710Z,6.55
2023-03-12T13:03:05.236Z,6.57
2023-03-12T13:05:54.094Z,4.82
2023-03-12T13:09:13.309Z,4.78
2023-03-12T13:11:45.195Z,6.80
2023-03-12T13:14:34.097Z,5.25
2023-03-12T13:17:24.635Z,3.92
2023-03-12T13:20:01.413Z,4.10
2023-03-12T13:22:50.794Z,5.22
2023-03-12T13:25:35.277Z,3.60
2023-03-12T13:28:34.923Z,4.63
2023-03-12T13:31:38.711Z,9.90
2023-03-12T13:34:52.422Z,4.32
2023-03-12T13:38:03.741Z,5.93
2023-03-12T13:40:54.008Z,4.57
2023-03-12T13:43:51.947Z,3.97
2023-03-12T13:46:46.173Z,3.55
2023-03-12T13:49:19.736Z,4.20
2023-03-12T13:52:03.044Z,2.92
2023-03-12T13:54:41.460Z,5.32
2023-03-12T13:57:13.125Z,2.47
2023-03-12T13:59:45.613Z,4.40
2023-03-12T14:02:25.825Z,2.80
2023-03-12T14:05:01.385Z,4.10
2023-03-12T14:08:20.698Z,4.20
2023-03-12T14:11:05.131Z,2.50
2023-03-12T14:13:53.993Z,4.88
2023-03-12T14:16:33.773Z,5.20
2023-03-12T14:19:04.128Z,2.95
2023-03-12T14:21:39.857Z,3.50
2023-03-12T14:24:22.128Z,3.05
2023-03-12T14:26:52.256Z,3.30
2023-03-12T14:29:25.458Z,4.22
2023-03-12T14:31:58.529Z,4.45
2023-03-12T14:34:30.366Z,4.47
2023-03-12T14:37:04.028Z,3.05
2023-03-12T14:39:39.215Z,2.75
2023-03-12T14:45:24.880Z,2.33
2023-03-12T14:47:55.829Z,2.40
2023-03-12T14:50:26.057Z,4.72
2023-03-12T14:52:54.879Z,5.68
2023-03-12T14:55:25.244Z,3.78
2023-03-12T14:58:05.981Z,3.20
2023-03-12T15:00:33.700Z,3.13
2023-03-12T15:03:11.240Z,3.53
2023-03-12T15:05:38.226Z,19.58
2023-03-12T15:08:06.332Z,8.10
2023-03-12T15:10:33.651Z,9.52
2023-03-12T15:13:04.481Z,15.45
2023-03-12T15:15:38.634Z,6.00
2023-03-12T15:18:11.820Z,13.55
2023-03-12T15:20:40.235Z,11.30
2023-03-12T15:23:10.127Z,11.43
2023-03-12T15:25:37.295Z,12.13
2023-03-12T15:28:24.190Z,15.13
2023-03-12T15:31:07.902Z,9.80
2023-03-12T15:33:34.933Z,6.32
2023-03-12T15:36:06.684Z,3.70
2023-03-12T15:38:35.536Z,4.03
2023-03-12T15:41:08.697Z,3.50
2023-03-12T15:43:37.427Z,4.20
2023-03-12T15:46:06.904Z,5.32
2023-03-12T15:48:37.804Z,4.07
2023-03-12T15:51:13.389Z,5.07
2023-03-12T15:53:40.504Z,2.88
2023-03-12T15:56:22.873Z,5.25
2023-03-12T15:59:04.239Z,5.22
2023-03-12T16:01:45.510Z,5.45
2023-03-12T16:04:13.390Z,3.60
2023-03-12T16:06:40.690Z,4.40
2023-03-12T16:09:07.574Z,3.25
2023-03-12T16:11:37.736Z,3.90
2023-03-12T16:14:15.074Z,7.22
2023-03-12T16:16:42.059Z,7.53
2023-03-12T16:19:12.679Z,3.78
2023-03-12T16:21:40.386Z,4.32
2023-03-12T16:24:08.001Z,4.35
2023-03-12T16:26:41.544Z,4.85
2023-03-12T16:29:16.180Z,6.85
2023-03-12T16:31:43.279Z,3.65
2023-03-12T16:34:10.836Z,3.72
2023-03-12T16:36:38.158Z,7.82
2023-03-12T16:39:05.406Z,3.80
2023-03-12T16:41:32.608Z,4.07
2023-03-12T16:44:00.092Z,4.72
2023-03-12T16:46:31.403Z,6.10
2023-03-12T16:48:59.579Z,5.88
2023-03-12T16:51:27.210Z,3.33
2023-03-12T16:54:07.405Z,6.00
2023-03-12T16:56:38.801Z,6.13
2023-03-12T16:59:15.438Z,7.32
2023-03-12T17:01:44.451Z,7.60
2023-03-12T17:04:13.006Z,4.68
2023-03-12T17:06:40.098Z,5.28
2023-03-12T17:09:07.457Z,4.30
2023-03-12T17:11:37.064Z,6.75
2023-03-12T17:14:16.754Z,5.93
2023-03-12T17:16:45.006Z,10.38
2023-03-12T17:19:11.905Z,5.88
2023-03-12T17:21:39.322Z,6.32
2023-03-12T17:24:07.220Z,3.97
2023-03-12T17:26:34.708Z,4.13
2023-03-12T17:29:01.565Z,5.78
2023-03-12T17:31:28.592Z,5.40
2023-03-12T17:33:57.244Z,6.07
2023-03-12T17:36:24.196Z,4.03
2023-03-12T17:38:51.168Z,6.68
2023-03-12T17:41:25.994Z,5.78
2023-03-12T17:43:54.530Z,6.28
2023-03-12T17:46:21.786Z,5.95
2023-03-12T17:48:48.931Z,6.57
2023-03-12T17:51:17.394Z,4.47
2023-03-12T17:53:44.355Z,4.25
2023-03-12T17:56:11.154Z,4.15
2023-03-12T17:58:38.317Z,7.25
2023-03-12T18:01:05.391Z,7.90
2023-03-12T18:03:32.283Z,6.97
2023-03-12T18:05:59.959Z,5.18
2023-03-12T18:08:28.672Z,4.55
2023-03-12T18:10:55.734Z,5.05
2023-03-12T18:13:23.537Z,8.38
2023-03-12T18:15:54.369Z,7.90
2023-03-12T18:18:21.906Z,7.57
2023-03-12T18:20:49.327Z,12.98
2023-03-12T18:23:17.661Z,13.27
2023-03-12T18:25:45.928Z,6.78
2023-03-12T18:28:12.817Z,6.60
2023-03-12T18:30:39.703Z,6.50
2023-03-12T18:33:06.631Z,5.78
2023-03-12T18:35:33.553Z,5.72
2023-03-12T18:38:00.930Z,7.50
2023-03-12T18:40:29.395Z,6.93
2023-03-12T18:42:59.705Z,7.45
2023-03-12T18:45:27.927Z,8.88
2023-03-12T18:47:55.182Z,8.75
2023-03-12T18:50:22.154Z,21.42
2023-03-12T18:52:49.320Z,15.73
2023-03-12T18:55:16.481Z,11.38
2023-03-12T18:57:44.857Z,15.40
2023-03-12T19:00:17.233Z,13.25
2023-03-12T19:02:47.578Z,10.77
2023-03-12T19:05:15.306Z,13.65
2023-03-12T19:07:42.353Z,9.68
2023-03-12T19:10:12.337Z,14.13
2023-03-12T19:12:51.639Z,15.13
2023-03-12T19:15:23.031Z,12.98
2023-03-12T19:17:50.087Z,12.70
2023-03-12T19:20:17.889Z,15.13
2023-03-12T19:22:45.170Z,11.60
2023-03-12T19:25:12.101Z,13.00
2023-03-12T19:27:39.277Z,16.60
2023-03-12T19:30:08.672Z,13.75
2023-03-12T19:32:43.616Z,18.25
2023-03-12T19:35:13.939Z,16.02
2023-03-12T19:37:42.048Z,17.02
2023-03-12T19:40:10.752Z,15.20
2023-03-12T19:45:29.953Z,14.10
2023-03-12T19:47:58.449Z,16.35
2023-03-12T19:50:25.710Z,18.08
2023-03-12T19:52:52.642Z,19.52
2023-03-12T19:55:19.879Z,23.20
2023-03-12T19:57:46.757Z,20.00
2023-03-12T20:00:14.475Z,20.58
2023-03-12T20:02:41.980Z,20.17
2023-03-12T20:05:10.615Z,15.43
2023-03-12T20:07:38.171Z,23.20
2023-03-12T20:10:07.305Z,24.50
2023-03-12T20:12:34.217Z,25.65
2023-03-12T20:15:01.306Z,26.02
2023-03-12T20:17:29.472Z,27.08
2023-03-12T20:19:56.731Z,17.88
2023-03-12T20:22:25.241Z,26.10
2023-03-12T20:24:52.325Z,18.02
2023-03-12T20:27:19.881Z,27.02
2023-03-12T20:29:47.223Z,20.48
2023-03-12T20:32:14.219Z,19.15
2023-03-12T20:34:41.195Z,24.88
2023-03-12T20:37:08.316Z,25.20
2023-03-12T20:39:36.954Z,20.08
2023-03-12T20:42:05.429Z,21.08
2023-03-12T20:44:32.406Z,27.27
2023-03-12T20:46:59.439Z,15.75
2023-03-12T20:49:26.294Z,30.95
2023-03-12T20:51:53.473Z,25.45
2023-03-12T20:54:20.473Z,25.60
2023-03-12T20:56:48.917Z,28.60
2023-03-12T20:59:16.180Z,27.90
2023-03-12T21:01:43.175Z,27.70
2023-03-12T21:04:10.518Z,21.77
2023-03-12T21:06:37.344Z,19.63
2023-03-12T21:09:04.731Z,31.65
2023-03-12T21:11:31.639Z,27.52
2023-03-12T21:13:59.963Z,25.67
2023-03-12T21:16:27.421Z,22.75
2023-03-12T21:18:58.630Z,16.92
2023-03-12T21:21:26.345Z,22.90
2023-03-12T21:23:53.819Z,24.75
2023-03-12T21:26:20.914Z,24.77
2023-03-12T21:28:48.215Z,22.83
2023-03-12T21:31:17.807Z,23.75
2023-03-12T21:33:44.982Z,24.92
2023-03-12T21:36:14.392Z,20.50
2023-03-12T21:38:42.754Z,32.03
2023-03-12T21:41:12.270Z,20.98
2023-03-12T21:43:45.102Z,30.88
2023-03-12T21:46:16.891Z,18.73
2023-03-12T21:48:45.746Z,25.35
2023-03-12T21:51:15.518Z,15.25
2023-03-12T21:53:42.527Z,23.48
2023-03-12T21:56:10.519Z,21.83
2023-03-12T21:58:37.877Z,14.50
2023-03-12T22:01:08.176Z,30.67
2023-03-12T22:03:37.666Z,22.40
2023-03-12T22:06:06.249Z,19.75
2023-03-12T22:08:34.613Z,19.45
2023-03-12T22:11:01.810Z,22.50
2023-03-12T22:13:29.087Z,22.85
2023-03-12T22:15:58.516Z,21.65
2023-03-12T22:18:26.296Z,15.43
2023-03-12T22:20:56.846Z,22.38
2023-03-12T22:23:24.580Z,16.00
2023-03-12T22:25:51.732Z,13.25
2023-03-12T22:28:19.434Z,20.02
2023-03-12T22:30:46.511Z,19.13
2023-03-12T22:33:13.881Z,24.83
2023-03-12T22:35:44.610Z,17.48
2023-03-12T22:38:13.473Z,15.48
2023-03-12T22:40:40.578Z,20.50
2023-03-12T22:43:07.701Z,26.73
2023-03-12T22:45:36.672Z,20.33
2023-03-12T22:48:04.198Z,12.77
2023-03-12T22:50:32.080Z,21.52
2023-03-12T22:52:59.346Z,18.80
2023-03-12T22:55:27.619Z,22.02
2023-03-12T22:57:54.454Z,13.02
2023-03-12T23:00:21.982Z,21.77
2023-03-12T23:02:49.296Z,25.23
2023-03-12T23:05:17.244Z,19.48
2023-03-12T23:07:44.583Z,24.23
2023-03-12T23:10:12.502Z,25.80
2023-03-12T23:12:40.890Z,14.48
2023-03-12T23:15:09.191Z,27.40
2023-03-12T23:17:36.148Z,20.77
2023-03-12T23:20:06.080Z,17.63
2023-03-12T23:22:33.452Z,15.38
2023-03-12T23:25:00.388Z,21.65
2023-03-12T23:27:27.512Z,16.05
2023-03-12T23:29:56.058Z,24.83
2023-03-12T23:32:23.564Z,19.83
2023-03-12T23:34:50.788Z,24.00
2023-03-12T23:37:17.956Z,17.95
2023-03-12T23:39:54.429Z,14.60
2023-03-12T23:42:22.369Z,20.25
2023-03-12T23:44:49.342Z,24.52
2023-03-12T23:47:17.775Z,19.33
2023-03-12T23:49:44.780Z,17.63
2023-03-12T23:52:11.999Z,17.52
2023-03-12T23:54:39.079Z,15.60
2023-03-12T23:57:06.210Z,20.13
2023-03-12T23:59:33.142Z,20.70
